sensor_id;sensor_type;location;lat;lon;timestamp;P1;durP1;ratioP1;P2;durP2;ratioP2
3133;SDS011;1577;49.912;10.924;2023-04-03T00:02:19;61.90;;;9.17;;
3133;SDS011;1577;49.912;10.924;2023-04-03T00:04:45;64.00;;;7.70;;
3133;SDS011;1577;49.912;10.924;2023-04-03T00:07:11;62.50;;;9.68;;
3133;SDS011;1577;49.912;10.924;2023-04-03T00:09:37;64.30;;;8.77;;
3133;SDS011;1577;49.912;10.924;2023-04-03T00:12:03;61.20;;;6.90;;
3133;SDS011;1577;49.912;10.924;2023-04-03T00:14:29;64.05;;;8.43;;
3133;SDS011;1577;49.912;10.924;2023-04-03T00:16:55;64.97;;;7.83;;
3133;SDS011;1577;49.912;10.924;2023-04-03T00:19:21;63.33;;;6.40;;
3133;SDS011;1577;49.912;10.924;2023-04-03T00:21:47;61.67;;;7.40;;
3133;SDS011;1577;49.912;10.924;2023-04-03T00:24:13;65.82;;;9.32;;
3133;SDS011;1577;49.912;10.924;2023-04-03T00:26:39;61.58;;;7.82;;
3133;SDS011;1577;49.912;10.924;2023-04-03T00:29:05;62.87;;;6.90;;
3133;SDS011;1577;49.912;10.924;2023-04-03T00:31:31;63.35;;;8.68;;
3133;SDS011;1577;49.912;10.924;2023-04-03T00:33:57;60.97;;;7.77;;
3133;SDS011;1577;49.912;10.924;2023-04-03T00:36:23;61.35;;;7.90;;
3133;SDS011;1577;49.912;10.924;2023-04-03T00:38:50;63.42;;;8.00;;
3133;SDS011;1577;49.912;10.924;2023-04-03T00:41:15;62.10;;;7.70;;
3133;SDS011;1577;49.912;10.924;2023-04-03T00:43:41;63.70;;;7.53;;
3133;SDS011;1577;49.912;10.924;2023-04-03T00:46:07;59.97;;;6.40;;
3133;SDS011;1577;49.912;10.924;2023-04-03T00:48:39;60.63;;;6.00;;
3133;SDS011;1577;49.912;10.924;2023-04-03T00:51:16;64.28;;;6.20;;
3133;SDS011;1577;49.912;10.924;2023-04-03T00:53:44;60.17;;;5.32;;
3133;SDS011;1577;49.912;10.924;2023-04-03T00:56:12;62.28;;;4.95;;
3133;SDS011;1577;49.912;10.924;2023-04-03T00:58:41;60.40;;;5.85;;
3133;SDS011;1577;49.912;10.924;2023-04-03T01:01:08;61.92;;;5.97;;
3133;SDS011;1577;49.912;10.924;2023-04-03T01:03:38;60.13;;;5.43;;
3133;SDS011;1577;49.912;10.924;2023-04-03T01:06:04;60.13;;;5.40;;
3133;SDS011;1577;49.912;10.924;2023-04-03T01:08:31;63.27;;;6.10;;
3133;SDS011;1577;49.912;10.924;2023-04-03T01:10:57;62.77;;;5.50;;
3133;SDS011;1577;49.912;10.924;2023-04-03T01:13:29;65.20;;;6.07;;
3133;SDS011;1577;49.912;10.924;2023-04-03T01:15:58;67.68;;;4.95;;
3133;SDS011;1577;49.912;10.924;2023-04-03T01:18:28;60.80;;;5.47;;
3133;SDS011;1577;49.912;10.924;2023-04-03T01:25:53;62.43;;;5.70;;
3133;SDS011;1577;49.912;10.924;2023-04-03T01:33:52;61.22;;;4.82;;
3133;SDS011;1577;49.912;10.924;2023-04-03T01:36:19;59.53;;;4.72;;
3133;SDS011;1577;49.912;10.924;2023-04-03T01:38:51;66.55;;;4.35;;
3133;SDS011;1577;49.912;10.924;2023-04-03T01:41:17;62.10;;;4.67;;
3133;SDS011;1577;49.912;10.924;2023-04-03T01:43:42;62.87;;;5.37;;
3133;SDS011;1577;49.912;10.924;2023-04-03T01:46:08;61.33;;;5.20;;
3133;SDS011;1577;49.912;10.924;2023-04-03T01:48:34;59.63;;;5.20;;
3133;SDS011;1577;49.912;10.924;2023-04-03T01:50:59;61.67;;;4.73;;
3133;SDS011;1577;49.912;10.924;2023-04-03T01:53:25;60.80;;;4.77;;
3133;SDS011;1577;49.912;10.924;2023-04-03T01:55:51;62.50;;;5.17;;
3133;SDS011;1577;49.912;10.924;2023-04-03T01:58:17;59.77;;;4.50;;
3133;SDS011;1577;49.912;10.924;2023-04-03T02:00:42;61.23;;;5.40;;
3133;SDS011;1577;49.912;10.924;2023-04-03T02:03:08;59.80;;;5.13;;
3133;SDS011;1577;49.912;10.924;2023-04-03T02:05:33;61.90;;;5.13;;
3133;SDS011;1577;49.912;10.924;2023-04-03T02:07:59;62.07;;;4.73;;
3133;SDS011;1577;49.912;10.924;2023-04-03T02:10:25;60.63;;;5.40;;
3133;SDS011;1577;49.912;10.924;2023-04-03T02:12:51;59.07;;;4.77;;
3133;SDS011;1577;49.912;10.924;2023-04-03T02:15:17;59.97;;;4.73;;
3133;SDS011;1577;49.912;10.924;2023-04-03T02:17:43;62.17;;;5.70;;
3133;SDS011;1577;49.912;10.924;2023-04-03T02:20:08;60.50;;;5.13;;
3133;SDS011;1577;49.912;10.924;2023-04-03T02:22:35;60.57;;;5.43;;
3133;SDS011;1577;49.912;10.924;2023-04-03T02:25:00;61.33;;;5.73;;
3133;SDS011;1577;49.912;10.924;2023-04-03T02:27:26;60.87;;;5.83;;
3133;SDS011;1577;49.912;10.924;2023-04-03T02:29:52;61.80;;;5.30;;
3133;SDS011;1577;49.912;10.924;2023-04-03T02:32:18;60.93;;;5.10;;
3133;SDS011;1577;49.912;10.924;2023-04-03T02:34:43;62.97;;;5.83;;
3133;SDS011;1577;49.912;10.924;2023-04-03T02:37:09;62.63;;;5.70;;
3133;SDS011;1577;49.912;10.924;2023-04-03T02:39:35;60.87;;;4.60;;
3133;SDS011;1577;49.912;10.924;2023-04-03T02:42:00;60.43;;;5.70;;
3133;SDS011;1577;49.912;10.924;2023-04-03T02:44:26;61.60;;;5.33;;
3133;SDS011;1577;49.912;10.924;2023-04-03T02:46:52;60.70;;;5.07;;
3133;SDS011;1577;49.912;10.924;2023-04-03T02:49:17;61.17;;;5.00;;
3133;SDS011;1577;49.912;10.924;2023-04-03T02:51:43;60.63;;;5.40;;
3133;SDS011;1577;49.912;10.924;2023-04-03T02:54:08;61.00;;;5.43;;
3133;SDS011;1577;49.912;10.924;2023-04-03T02:56:34;59.30;;;5.30;;
3133;SDS011;1577;49.912;10.924;2023-04-03T02:59:00;62.37;;;5.63;;
3133;SDS011;1577;49.912;10.924;2023-04-03T03:01:25;60.40;;;5.60;;
3133;SDS011;1577;49.912;10.924;2023-04-03T03:03:53;61.00;;;5.35;;
3133;SDS011;1577;49.912;10.924;2023-04-03T03:06:19;62.22;;;5.82;;
3133;SDS011;1577;49.912;10.924;2023-04-03T03:08:45;60.10;;;5.60;;
3133;SDS011;1577;49.912;10.924;2023-04-03T03:11:10;60.60;;;6.10;;
3133;SDS011;1577;49.912;10.924;2023-04-03T03:13:36;68.63;;;6.03;;
3133;SDS011;1577;49.912;10.924;2023-04-03T03:16:02;61.93;;;6.00;;
3133;SDS011;1577;49.912;10.924;2023-04-03T03:18:28;61.93;;;5.60;;
3133;SDS011;1577;49.912;10.924;2023-04-03T03:20:58;62.75;;;6.10;;
3133;SDS011;1577;49.912;10.924;2023-04-03T03:23:25;65.55;;;5.65;;
3133;SDS011;1577;49.912;10.924;2023-04-03T03:25:55;61.88;;;5.55;;
3133;SDS011;1577;49.912;10.924;2023-04-03T03:28:22;60.55;;;5.93;;
3133;SDS011;1577;49.912;10.924;2023-04-03T03:30:48;59.97;;;5.83;;
3133;SDS011;1577;49.912;10.924;2023-04-03T03:33:14;60.67;;;5.60;;
3133;SDS011;1577;49.912;10.924;2023-04-03T03:35:40;60.45;;;6.03;;
3133;SDS011;1577;49.912;10.924;2023-04-03T03:38:06;60.40;;;5.83;;
3133;SDS011;1577;49.912;10.924;2023-04-03T03:40:32;61.00;;;6.15;;
3133;SDS011;1577;49.912;10.924;2023-04-03T03:42:58;60.50;;;5.47;;
3133;SDS011;1577;49.912;10.924;2023-04-03T03:45:24;62.03;;;6.57;;
3133;SDS011;1577;49.912;10.924;2023-04-03T03:47:50;59.17;;;5.17;;
3133;SDS011;1577;49.912;10.924;2023-04-03T03:50:16;59.30;;;5.53;;
3133;SDS011;1577;49.912;10.924;2023-04-03T03:52:42;61.85;;;5.50;;
3133;SDS011;1577;49.912;10.924;2023-04-03T03:55:08;61.35;;;5.97;;
3133;SDS011;1577;49.912;10.924;2023-04-03T03:57:35;60.53;;;5.32;;
3133;SDS011;1577;49.912;10.924;2023-04-03T04:00:01;61.42;;;5.20;;
3133;SDS011;1577;49.912;10.924;2023-04-03T04:02:27;59.45;;;5.30;;
3133;SDS011;1577;49.912;10.924;2023-04-03T04:04:53;58.87;;;5.17;;
3133;SDS011;1577;49.912;10.924;2023-04-03T04:07:19;61.08;;;5.53;;
3133;SDS011;1577;49.912;10.924;2023-04-03T04:09:45;66.00;;;5.43;;
3133;SDS011;1577;49.912;10.924;2023-04-03T04:12:11;60.57;;;5.13;;
3133;SDS011;1577;49.912;10.924;2023-04-03T04:14:37;62.00;;;7.03;;
3133;SDS011;1577;49.912;10.924;2023-04-03T04:17:03;64.60;;;7.33;;
3133;SDS011;1577;49.912;10.924;2023-04-03T04:19:29;76.50;;;7.15;;
3133;SDS011;1577;49.912;10.924;2023-04-03T04:21:55;62.13;;;8.00;;
3133;SDS011;1577;49.912;10.924;2023-04-03T04:24:21;63.37;;;8.13;;
3133;SDS011;1577;49.912;10.924;2023-04-03T04:26:48;63.03;;;8.50;;
3133;SDS011;1577;49.912;10.924;2023-04-03T04:29:14;61.78;;;8.52;;
3133;SDS011;1577;49.912;10.924;2023-04-03T04:31:40;63.55;;;8.10;;
3133;SDS011;1577;49.912;10.924;2023-04-03T04:34:06;62.30;;;8.43;;
3133;SDS011;1577;49.912;10.924;2023-04-03T04:36:32;64.28;;;8.68;;
3133;SDS011;1577;49.912;10.924;2023-04-03T04:38:58;63.70;;;8.10;;
3133;SDS011;1577;49.912;10.924;2023-04-03T04:41:24;61.53;;;7.53;;
3133;SDS011;1577;49.912;10.924;2023-04-03T04:43:51;63.08;;;6.55;;
3133;SDS011;1577;49.912;10.924;2023-04-03T04:46:17;63.80;;;7.75;;
3133;SDS011;1577;49.912;10.924;2023-04-03T04:48:43;66.63;;;7.68;;
3133;SDS011;1577;49.912;10.924;2023-04-03T04:51:09;64.75;;;8.82;;
3133;SDS011;1577;49.912;10.924;2023-04-03T04:53:35;63.77;;;6.90;;
3133;SDS011;1577;49.912;10.924;2023-04-03T04:56:01;65.30;;;7.10;;
3133;SDS011;1577;49.912;10.924;2023-04-03T04:58:27;69.10;;;6.50;;
3133;SDS011;1577;49.912;10.924;2023-04-03T05:01:00;63.60;;;6.55;;
3133;SDS011;1577;49.912;10.924;2023-04-03T05:03:26;62.45;;;5.82;;
3133;SDS011;1577;49.912;10.924;2023-04-03T05:05:52;64.20;;;6.20;;
3133;SDS011;1577;49.912;10.924;2023-04-03T05:08:18;66.03;;;7.27;;
3133;SDS011;1577;49.912;10.924;2023-04-03T05:10:45;63.15;;;6.07;;
3133;SDS011;1577;49.912;10.924;2023-04-03T05:13:11;62.63;;;6.25;;
3133;SDS011;1577;49.912;10.924;2023-04-03T05:15:37;64.75;;;5.75;;
3133;SDS011;1577;49.912;10.924;2023-04-03T05:18:03;65.22;;;5.93;;
3133;SDS011;1577;49.912;10.924;2023-04-03T05:20:30;62.88;;;5.47;;
3133;SDS011;1577;49.912;10.924;2023-04-03T05:22:56;63.15;;;6.30;;
3133;SDS011;1577;49.912;10.924;2023-04-03T05:25:22;65.00;;;6.20;;
3133;SDS011;1577;49.912;10.924;2023-04-03T05:27:48;62.70;;;5.85;;
3133;SDS011;1577;49.912;10.924;2023-04-03T05:30:14;61.88;;;5.90;;
3133;SDS011;1577;49.912;10.924;2023-04-03T05:32:40;63.38;;;6.15;;
3133;SDS011;1577;49.912;10.924;2023-04-03T05:35:07;62.33;;;6.18;;
3133;SDS011;1577;49.912;10.924;2023-04-03T05:37:33;63.97;;;6.05;;
3133;SDS011;1577;49.912;10.924;2023-04-03T05:39:59;61.30;;;5.40;;
3133;SDS011;1577;49.912;10.924;2023-04-03T05:42:25;65.15;;;6.20;;
3133;SDS011;1577;49.912;10.924;2023-04-03T05:44:51;64.25;;;5.68;;
3133;SDS011;1577;49.912;10.924;2023-04-03T05:47:17;61.90;;;6.13;;
3133;SDS011;1577;49.912;10.924;2023-04-03T05:49:43;64.05;;;5.57;;
3133;SDS011;1577;49.912;10.924;2023-04-03T05:52:23;65.20;;;7.78;;
3133;SDS011;1577;49.912;10.924;2023-04-03T05:54:51;62.05;;;5.07;;
3133;SDS011;1577;49.912;10.924;2023-04-03T05:57:17;66.90;;;5.72;;
3133;SDS011;1577;49.912;10.924;2023-04-03T05:59:43;61.60;;;5.38;;
3133;SDS011;1577;49.912;10.924;2023-04-03T06:02:13;62.47;;;5.40;;
3133;SDS011;1577;49.912;10.924;2023-04-03T06:04:39;62.60;;;7.10;;
3133;SDS011;1577;49.912;10.924;2023-04-03T06:07:06;61.20;;;4.70;;
3133;SDS011;1577;49.912;10.924;2023-04-03T06:09:35;59.07;;;6.87;;
3133;SDS011;1577;49.912;10.924;2023-04-03T06:12:01;55.00;;;10.30;;
3133;SDS011;1577;49.912;10.924;2023-04-03T06:14:27;60.70;;;21.03;;
3133;SDS011;1577;49.912;10.924;2023-04-03T06:16:53;47.30;;;18.20;;
3133;SDS011;1577;49.912;10.924;2023-04-03T06:19:19;45.63;;;15.17;;
3133;SDS011;1577;49.912;10.924;2023-04-03T06:21:45;42.90;;;17.33;;
3133;SDS011;1577;49.912;10.924;2023-04-03T06:24:12;39.90;;;14.57;;
3133;SDS011;1577;49.912;10.924;2023-04-03T06:26:40;44.77;;;12.90;;
3133;SDS011;1577;49.912;10.924;2023-04-03T06:29:06;32.10;;;7.30;;
3133;SDS011;1577;49.912;10.924;2023-04-03T06:31:32;34.17;;;5.40;;
3133;SDS011;1577;49.912;10.924;2023-04-03T06:33:57;36.27;;;13.90;;
3133;SDS011;1577;49.912;10.924;2023-04-03T06:36:23;34.33;;;6.20;;
3133;SDS011;1577;49.912;10.924;2023-04-03T06:38:49;39.07;;;6.57;;
3133;SDS011;1577;49.912;10.924;2023-04-03T06:41:16;40.20;;;9.37;;
3133;SDS011;1577;49.912;10.924;2023-04-03T06:43:42;45.97;;;8.33;;
3133;SDS011;1577;49.912;10.924;2023-04-03T06:46:18;41.67;;;8.53;;
3133;SDS011;1577;49.912;10.924;2023-04-03T06:48:45;48.53;;;12.93;;
3133;SDS011;1577;49.912;10.924;2023-04-03T06:51:15;47.87;;;9.93;;
3133;SDS011;1577;49.912;10.924;2023-04-03T06:53:43;48.70;;;9.03;;
3133;SDS011;1577;49.912;10.924;2023-04-03T06:56:09;50.57;;;9.00;;
3133;SDS011;1577;49.912;10.924;2023-04-03T06:58:35;51.07;;;9.13;;
3133;SDS011;1577;49.912;10.924;2023-04-03T07:01:01;52.20;;;7.30;;
3133;SDS011;1577;49.912;10.924;2023-04-03T07:03:27;55.10;;;7.57;;
3133;SDS011;1577;49.912;10.924;2023-04-03T07:05:53;57.40;;;9.43;;
3133;SDS011;1577;49.912;10.924;2023-04-03T07:08:19;55.67;;;8.30;;
3133;SDS011;1577;49.912;10.924;2023-04-03T07:10:45;54.80;;;7.80;;
3133;SDS011;1577;49.912;10.924;2023-04-03T07:13:11;59.73;;;8.20;;
3133;SDS011;1577;49.912;10.924;2023-04-03T07:15:36;55.57;;;8.90;;
3133;SDS011;1577;49.912;10.924;2023-04-03T07:18:02;54.50;;;8.40;;
3133;SDS011;1577;49.912;10.924;2023-04-03T07:20:29;51.30;;;9.27;;
3133;SDS011;1577;49.912;10.924;2023-04-03T07:22:54;51.90;;;25.47;;
3133;SDS011;1577;49.912;10.924;2023-04-03T07:25:20;43.10;;;16.27;;
3133;SDS011;1577;49.912;10.924;2023-04-03T07:27:46;32.70;;;9.47;;
3133;SDS011;1577;49.912;10.924;2023-04-03T07:30:12;46.07;;;14.53;;
3133;SDS011;1577;49.912;10.924;2023-04-03T07:32:39;26.40;;;11.67;;
3133;SDS011;1577;49.912;10.924;2023-04-03T07:35:04;21.23;;;9.40;;
3133;SDS011;1577;49.912;10.924;2023-04-03T07:37:30;20.97;;;7.20;;
3133;SDS011;1577;49.912;10.924;2023-04-03T07:39:57;17.63;;;4.77;;
3133;SDS011;1577;49.912;10.924;2023-04-03T07:42:24;15.33;;;3.50;;
3133;SDS011;1577;49.912;10.924;2023-04-03T07:44:52;12.57;;;2.40;;
3133;SDS011;1577;49.912;10.924;2023-04-03T07:47:18;12.23;;;3.27;;
3133;SDS011;1577;49.912;10.924;2023-04-03T07:49:45;14.73;;;2.30;;
3133;SDS011;1577;49.912;10.924;2023-04-03T07:52:11;10.80;;;2.60;;
3133;SDS011;1577;49.912;10.924;2023-04-03T07:54:36;11.07;;;2.30;;
3133;SDS011;1577;49.912;10.924;2023-04-03T07:57:02;11.77;;;2.70;;
3133;SDS011;1577;49.912;10.924;2023-04-03T07:59:28;10.13;;;2.00;;
3133;SDS011;1577;49.912;10.924;2023-04-03T08:01:53;11.30;;;2.67;;
3133;SDS011;1577;49.912;10.924;2023-04-03T08:04:19;13.60;;;3.10;;
3133;SDS011;1577;49.912;10.924;2023-04-03T08:06:44;13.83;;;3.43;;
3133;SDS011;1577;49.912;10.924;2023-04-03T08:09:10;16.77;;;4.00;;
3133;SDS011;1577;49.912;10.924;2023-04-03T08:11:40;14.97;;;2.80;;
3133;SDS011;1577;49.912;10.924;2023-04-03T08:14:05;21.87;;;5.20;;
3133;SDS011;1577;49.912;10.924;2023-04-03T08:16:31;26.23;;;7.83;;
3133;SDS011;1577;49.912;10.924;2023-04-03T08:18:56;26.80;;;6.70;;
3133;SDS011;1577;49.912;10.924;2023-04-03T08:21:22;28.40;;;5.27;;
3133;SDS011;1577;49.912;10.924;2023-04-03T08:23:48;27.87;;;6.57;;
3133;SDS011;1577;49.912;10.924;2023-04-03T08:26:16;29.93;;;7.90;;
3133;SDS011;1577;49.912;10.924;2023-04-03T08:28:43;21.70;;;8.60;;
3133;SDS011;1577;49.912;10.924;2023-04-03T08:31:10;14.40;;;3.87;;
3133;SDS011;1577;49.912;10.924;2023-04-03T08:33:38;15.20;;;3.50;;
3133;SDS011;1577;49.912;10.924;2023-04-03T08:36:05;10.23;;;2.07;;
3133;SDS011;1577;49.912;10.924;2023-04-03T08:38:32;8.80;;;1.67;;
3133;SDS011;1577;49.912;10.924;2023-04-03T08:41:10;9.57;;;1.90;;
3133;SDS011;1577;49.912;10.924;2023-04-03T08:46:22;8.63;;;1.60;;
3133;SDS011;1577;49.912;10.924;2023-04-03T08:48:57;11.80;;;2.40;;
3133;SDS011;1577;49.912;10.924;2023-04-03T08:51:24;13.83;;;2.53;;
3133;SDS011;1577;49.912;10.924;2023-04-03T08:53:56;14.10;;;2.90;;
3133;SDS011;1577;49.912;10.924;2023-04-03T08:56:33;17.20;;;3.77;;
3133;SDS011;1577;49.912;10.924;2023-04-03T08:59:00;20.60;;;5.03;;
3133;SDS011;1577;49.912;10.924;2023-04-03T09:01:35;24.90;;;9.73;;
3133;SDS011;1577;49.912;10.924;2023-04-03T09:04:05;20.03;;;7.03;;
3133;SDS011;1577;49.912;10.924;2023-04-03T09:06:36;22.77;;;6.93;;
3133;SDS011;1577;49.912;10.924;2023-04-03T09:17:14;22.50;;;4.67;;
3133;SDS011;1577;49.912;10.924;2023-04-03T09:22:41;23.80;;;5.67;;
3133;SDS011;1577;49.912;10.924;2023-04-03T09:25:15;28.00;;;7.43;;
3133;SDS011;1577;49.912;10.924;2023-04-03T09:27:44;27.20;;;6.70;;
3133;SDS011;1577;49.912;10.924;2023-04-03T09:30:21;28.33;;;5.00;;
3133;SDS011;1577;49.912;10.924;2023-04-03T09:32:50;31.77;;;7.40;;
3133;SDS011;1577;49.912;10.924;2023-04-03T09:37:44;23.40;;;7.43;;
3133;SDS011;1577;49.912;10.924;2023-04-03T09:42:50;16.70;;;5.30;;
3133;SDS011;1577;49.912;10.924;2023-04-03T09:45:23;18.50;;;6.53;;
3133;SDS011;1577;49.912;10.924;2023-04-03T09:48:07;20.83;;;5.13;;
3133;SDS011;1577;49.912;10.924;2023-04-03T09:56:00;44.07;;;11.53;;
3133;SDS011;1577;49.912;10.924;2023-04-03T09:58:38;44.37;;;10.87;;
3133;SDS011;1577;49.912;10.924;2023-04-03T10:01:08;48.57;;;12.53;;
3133;SDS011;1577;49.912;10.924;2023-04-03T10:04:03;52.50;;;10.70;;
3133;SDS011;1577;49.912;10.924;2023-04-03T10:06:29;53.60;;;9.20;;
3133;SDS011;1577;49.912;10.924;2023-04-03T10:09:03;55.00;;;8.50;;
3133;SDS011;1577;49.912;10.924;2023-04-03T10:14:39;53.67;;;6.10;;
3133;SDS011;1577;49.912;10.924;2023-04-03T10:25:04;55.00;;;6.10;;
3133;SDS011;1577;49.912;10.924;2023-04-03T10:32:54;56.73;;;3.80;;
3133;SDS011;1577;49.912;10.924;2023-04-03T10:41:07;57.90;;;4.40;;
3133;SDS011;1577;49.912;10.924;2023-04-03T10:44:04;60.43;;;4.80;;
3133;SDS011;1577;49.912;10.924;2023-04-03T10:54:58;58.50;;;6.90;;
3133;SDS011;1577;49.912;10.924;2023-04-03T10:57:53;58.60;;;7.07;;
3133;SDS011;1577;49.912;10.924;2023-04-03T11:00:45;59.33;;;8.27;;
3133;SDS011;1577;49.912;10.924;2023-04-03T11:03:15;60.37;;;7.43;;
3133;SDS011;1577;49.912;10.924;2023-04-03T11:05:49;58.77;;;4.90;;
3133;SDS011;1577;49.912;10.924;2023-04-03T11:08:27;58.70;;;5.53;;
3133;SDS011;1577;49.912;10.924;2023-04-03T11:10:56;58.70;;;6.07;;
3133;SDS011;1577;49.912;10.924;2023-04-03T11:13:46;60.37;;;6.23;;
3133;SDS011;1577;49.912;10.924;2023-04-03T11:16:34;61.77;;;8.10;;
3133;SDS011;1577;49.912;10.924;2023-04-03T11:22:01;59.20;;;8.70;;
3133;SDS011;1577;49.912;10.924;2023-04-03T11:24:33;58.90;;;7.77;;
3133;SDS011;1577;49.912;10.924;2023-04-03T11:27:03;58.87;;;6.70;;
3133;SDS011;1577;49.912;10.924;2023-04-03T11:29:39;61.40;;;8.40;;
3133;SDS011;1577;49.912;10.924;2023-04-03T11:34:57;60.63;;;5.97;;
3133;SDS011;1577;49.912;10.924;2023-04-03T11:40:06;62.47;;;10.47;;
3133;SDS011;1577;49.912;10.924;2023-04-03T11:42:48;60.17;;;7.50;;
3133;SDS011;1577;49.912;10.924;2023-04-03T11:50:46;61.90;;;11.57;;
3133;SDS011;1577;49.912;10.924;2023-04-03T12:05:54;59.47;;;6.50;;
3133;SDS011;1577;49.912;10.924;2023-04-03T12:16:22;63.57;;;5.40;;
3133;SDS011;1577;49.912;10.924;2023-04-03T12:21:20;58.90;;;4.90;;
3133;SDS011;1577;49.912;10.924;2023-04-03T12:24:15;59.77;;;5.77;;
3133;SDS011;1577;49.912;10.924;2023-04-03T12:27:01;61.27;;;5.40;;
3133;SDS011;1577;49.912;10.924;2023-04-03T12:48:27;59.07;;;4.50;;
3133;SDS011;1577;49.912;10.924;2023-04-03T12:50:56;59.93;;;5.40;;
3133;SDS011;1577;49.912;10.924;2023-04-03T12:53:27;60.43;;;5.70;;
3133;SDS011;1577;49.912;10.924;2023-04-03T12:58:52;60.47;;;4.90;;
3133;SDS011;1577;49.912;10.924;2023-04-03T13:01:25;59.07;;;5.30;;
3133;SDS011;1577;49.912;10.924;2023-04-03T13:03:55;60.57;;;5.73;;
3133;SDS011;1577;49.912;10.924;2023-04-03T13:06:23;60.77;;;5.90;;
3133;SDS011;1577;49.912;10.924;2023-04-03T13:08:53;60.97;;;5.50;;
3133;SDS011;1577;49.912;10.924;2023-04-03T13:11:25;58.67;;;5.90;;
3133;SDS011;1577;49.912;10.924;2023-04-03T13:13:59;59.90;;;4.83;;
3133;SDS011;1577;49.912;10.924;2023-04-03T13:16:28;60.57;;;6.43;;
3133;SDS011;1577;49.912;10.924;2023-04-03T13:18:54;59.30;;;4.93;;
3133;SDS011;1577;49.912;10.924;2023-04-03T13:21:24;59.07;;;6.80;;
3133;SDS011;1577;49.912;10.924;2023-04-03T13:23:53;61.30;;;5.20;;
3133;SDS011;1577;49.912;10.924;2023-04-03T13:26:22;59.60;;;7.67;;
3133;SDS011;1577;49.912;10.924;2023-04-03T13:28:51;59.83;;;6.30;;
3133;SDS011;1577;49.912;10.924;2023-04-03T13:31:30;58.73;;;5.60;;
3133;SDS011;1577;49.912;10.924;2023-04-03T13:36:39;59.27;;;4.53;;
3133;SDS011;1577;49.912;10.924;2023-04-03T13:41:55;61.00;;;5.33;;
3133;SDS011;1577;49.912;10.924;2023-04-03T13:44:34;60.80;;;5.70;;
3133;SDS011;1577;49.912;10.924;2023-04-03T13:47:15;60.40;;;5.40;;
3133;SDS011;1577;49.912;10.924;2023-04-03T13:50:04;58.90;;;5.17;;
3133;SDS011;1577;49.912;10.924;2023-04-03T13:53:08;60.20;;;6.43;;
3133;SDS011;1577;49.912;10.924;2023-04-03T13:56:24;59.47;;;5.90;;
3133;SDS011;1577;49.912;10.924;2023-04-03T13:58:28;58.50;;;5.37;;
3133;SDS011;1577;49.912;10.924;2023-04-03T14:00:59;62.60;;;6.00;;
3133;SDS011;1577;49.912;10.924;2023-04-03T14:06:21;59.37;;;4.13;;
3133;SDS011;1577;49.912;10.924;2023-04-03T14:08:47;64.03;;;4.50;;
3133;SDS011;1577;49.912;10.924;2023-04-03T14:13:41;59.23;;;6.37;;
3133;SDS011;1577;49.912;10.924;2023-04-03T14:16:07;60.27;;;6.30;;
3133;SDS011;1577;49.912;10.924;2023-04-03T14:18:36;60.37;;;8.20;;
3133;SDS011;1577;49.912;10.924;2023-04-03T14:21:02;58.73;;;5.60;;
3133;SDS011;1577;49.912;10.924;2023-04-03T14:23:28;59.83;;;5.77;;
3133;SDS011;1577;49.912;10.924;2023-04-03T14:25:53;59.80;;;4.77;;
3133;SDS011;1577;49.912;10.924;2023-04-03T14:28:21;58.70;;;4.63;;
3133;SDS011;1577;49.912;10.924;2023-04-03T14:30:49;58.20;;;4.80;;
3133;SDS011;1577;49.912;10.924;2023-04-03T14:33:17;58.00;;;4.53;;
3133;SDS011;1577;49.912;10.924;2023-04-03T14:35:44;59.70;;;4.90;;
3133;SDS011;1577;49.912;10.924;2023-04-03T14:38:20;59.50;;;5.50;;
3133;SDS011;1577;49.912;10.924;2023-04-03T14:40:52;57.57;;;4.13;;
3133;SDS011;1577;49.912;10.924;2023-04-03T14:43:20;59.90;;;5.00;;
3133;SDS011;1577;49.912;10.924;2023-04-03T14:45:46;58.47;;;4.57;;
3133;SDS011;1577;49.912;10.924;2023-04-03T14:48:15;64.67;;;5.60;;
3133;SDS011;1577;49.912;10.924;2023-04-03T14:50:44;58.57;;;4.80;;
3133;SDS011;1577;49.912;10.924;2023-04-03T14:53:10;59.17;;;4.50;;
3133;SDS011;1577;49.912;10.924;2023-04-03T14:55:39;59.90;;;4.90;;
3133;SDS011;1577;49.912;10.924;2023-04-03T14:58:14;58.17;;;3.67;;
3133;SDS011;1577;49.912;10.924;2023-04-03T15:00:42;60.30;;;4.17;;
3133;SDS011;1577;49.912;10.924;2023-04-03T15:03:16;58.27;;;4.13;;
3133;SDS011;1577;49.912;10.924;2023-04-03T15:05:47;59.50;;;4.83;;
3133;SDS011;1577;49.912;10.924;2023-04-03T15:08:18;62.80;;;12.23;;
3133;SDS011;1577;49.912;10.924;2023-04-03T15:10:49;63.43;;;16.43;;
3133;SDS011;1577;49.912;10.924;2023-04-03T15:13:18;60.57;;;12.17;;
3133;SDS011;1577;49.912;10.924;2023-04-03T15:15:43;61.80;;;11.70;;
3133;SDS011;1577;49.912;10.924;2023-04-03T15:18:22;61.10;;;6.87;;
3133;SDS011;1577;49.912;10.924;2023-04-03T15:20:53;58.67;;;4.20;;
3133;SDS011;1577;49.912;10.924;2023-04-03T15:23:20;62.33;;;5.00;;
3133;SDS011;1577;49.912;10.924;2023-04-03T15:25:51;59.47;;;4.57;;
3133;SDS011;1577;49.912;10.924;2023-04-03T15:28:34;57.57;;;4.10;;
3133;SDS011;1577;49.912;10.924;2023-04-03T15:31:03;58.33;;;3.90;;
3133;SDS011;1577;49.912;10.924;2023-04-03T15:33:29;58.10;;;4.63;;
3133;SDS011;1577;49.912;10.924;2023-04-03T15:35:56;58.77;;;4.10;;
3133;SDS011;1577;49.912;10.924;2023-04-03T15:38:21;57.50;;;4.43;;
3133;SDS011;1577;49.912;10.924;2023-04-03T15:40:47;57.37;;;3.73;;
3133;SDS011;1577;49.912;10.924;2023-04-03T15:43:13;58.20;;;4.50;;
3133;SDS011;1577;49.912;10.924;2023-04-03T15:45:39;58.30;;;4.10;;
3133;SDS011;1577;49.912;10.924;2023-04-03T15:48:06;58.90;;;4.70;;
3133;SDS011;1577;49.912;10.924;2023-04-03T15:50:32;58.47;;;5.27;;
3133;SDS011;1577;49.912;10.924;2023-04-03T15:52:58;58.73;;;6.53;;
3133;SDS011;1577;49.912;10.924;2023-04-03T15:55:27;58.63;;;5.80;;
3133;SDS011;1577;49.912;10.924;2023-04-03T15:57:54;62.10;;;6.07;;
3133;SDS011;1577;49.912;10.924;2023-04-03T16:00:21;58.63;;;4.23;;
3133;SDS011;1577;49.912;10.924;2023-04-03T16:02:47;64.63;;;5.97;;
3133;SDS011;1577;49.912;10.924;2023-04-03T16:05:15;61.60;;;6.10;;
3133;SDS011;1577;49.912;10.924;2023-04-03T16:07:42;59.97;;;3.67;;
3133;SDS011;1577;49.912;10.924;2023-04-03T16:10:09;59.60;;;4.47;;
3133;SDS011;1577;49.912;10.924;2023-04-03T16:12:36;60.63;;;3.80;;
3133;SDS011;1577;49.912;10.924;2023-04-03T16:15:02;62.00;;;4.40;;
3133;SDS011;1577;49.912;10.924;2023-04-03T16:17:28;59.40;;;4.83;;
3133;SDS011;1577;49.912;10.924;2023-04-03T16:19:55;68.33;;;6.60;;
3133;SDS011;1577;49.912;10.924;2023-04-03T16:22:21;60.67;;;4.70;;
3133;SDS011;1577;49.912;10.924;2023-04-03T16:24:48;62.23;;;3.80;;
3133;SDS011;1577;49.912;10.924;2023-04-03T16:27:14;58.97;;;3.60;;
3133;SDS011;1577;49.912;10.924;2023-04-03T16:29:40;61.00;;;4.30;;
3133;SDS011;1577;49.912;10.924;2023-04-03T16:32:06;66.23;;;5.80;;
3133;SDS011;1577;49.912;10.924;2023-04-03T16:34:32;63.07;;;5.97;;
3133;SDS011;1577;49.912;10.924;2023-04-03T16:36:58;62.10;;;5.13;;
3133;SDS011;1577;49.912;10.924;2023-04-03T16:39:24;61.00;;;4.90;;
3133;SDS011;1577;49.912;10.924;2023-04-03T16:41:50;66.03;;;5.47;;
3133;SDS011;1577;49.912;10.924;2023-04-03T16:44:16;65.97;;;4.93;;
3133;SDS011;1577;49.912;10.924;2023-04-03T16:46:41;64.13;;;5.20;;
3133;SDS011;1577;49.912;10.924;2023-04-03T16:49:07;63.00;;;5.03;;
3133;SDS011;1577;49.912;10.924;2023-04-03T16:51:32;63.33;;;5.90;;
3133;SDS011;1577;49.912;10.924;2023-04-03T16:53:58;64.90;;;6.40;;
3133;SDS011;1577;49.912;10.924;2023-04-03T16:56:24;63.30;;;6.13;;
3133;SDS011;1577;49.912;10.924;2023-04-03T16:58:51;63.63;;;6.00;;
3133;SDS011;1577;49.912;10.924;2023-04-03T17:01:18;61.40;;;5.20;;
3133;SDS011;1577;49.912;10.924;2023-04-03T17:03:46;60.77;;;4.57;;
3133;SDS011;1577;49.912;10.924;2023-04-03T17:06:12;60.97;;;4.50;;
3133;SDS011;1577;49.912;10.924;2023-04-03T17:08:42;64.03;;;3.83;;
3133;SDS011;1577;49.912;10.924;2023-04-03T17:11:08;62.00;;;4.43;;